createdAt,value
2023-02-26T00:01:47.411Z,16.90
2023-02-26T00:04:16.001Z,17.00
2023-02-26T00:06:53.214Z,16.90
2023-02-26T00:09:25.308Z,17.00
2023-02-26T00:11:55.983Z,17.10
2023-02-26T00:14:25.196Z,17.10
2023-02-26T00:17:07.148Z,17.10
2023-02-26T00:19:37.553Z,17.10
2023-02-26T00:22:06.809Z,17.00
2023-02-26T00:24:35.097Z,17.00
2023-02-26T00:27:05.020Z,16.90
2023-02-26T00:29:34.033Z,17.00
2023-02-26T00:32:02.931Z,16.90
2023-02-26T00:34:32.012Z,16.80
2023-02-26T00:37:11.571Z,16.90
2023-02-26T00:39:49.115Z,16.90
2023-02-26T00:42:20.010Z,16.80
2023-02-26T00:44:49.011Z,16.80
2023-02-26T00:47:26.373Z,16.90
2023-02-26T00:50:05.874Z,16.90
2023-02-26T00:52:43.710Z,16.80
2023-02-26T00:55:12.093Z,16.80
2023-02-26T00:57:41.827Z,16.70
2023-02-26T01:00:11.770Z,16.70
2023-02-26T01:02:41.568Z,16.70
2023-02-26T01:05:11.608Z,16.60
2023-02-26T01:07:45.316Z,16.50
2023-02-26T01:10:15.414Z,16.40
2023-02-26T01:12:45.865Z,16.40
2023-02-26T01:15:15.212Z,16.50
2023-02-26T01:17:48.779Z,16.50
2023-02-26T01:20:21.164Z,16.40
2023-02-26T01:22:55.532Z,16.40
2023-02-26T01:25:29.021Z,16.50
2023-02-26T01:27:59.111Z,16.50
2023-02-26T01:30:28.470Z,16.60
2023-02-26T01:33:04.745Z,16.70
2023-02-26T01:35:42.088Z,16.70
2023-02-26T01:38:25.937Z,16.70
2023-02-26T01:41:21.726Z,16.70
2023-02-26T01:44:00.829Z,16.70
2023-02-26T01:46:37.891Z,16.70
2023-02-26T01:49:13.663Z,16.80
2023-02-26T01:51:46.084Z,16.80
2023-02-26T01:54:15.611Z,16.80
2023-02-26T01:56:46.129Z,16.90
2023-02-26T01:59:18.229Z,16.90
2023-02-26T02:01:46.617Z,17.00
2023-02-26T02:04:16.939Z,17.10
2023-02-26T02:06:46.113Z,17.20
2023-02-26T02:09:14.813Z,17.30
2023-02-26T02:11:55.784Z,17.40
2023-02-26T02:14:32.730Z,17.40
2023-02-26T02:17:04.440Z,17.40
2023-02-26T02:19:55.049Z,17.50
2023-02-26T02:22:47.340Z,17.50
2023-02-26T02:25:52.513Z,17.60
2023-02-26T02:28:32.169Z,17.50
2023-02-26T02:31:09.515Z,17.60
2023-02-26T02:33:48.396Z,17.50
2023-02-26T02:36:22.085Z,17.50
2023-02-26T02:38:55.845Z,17.60
2023-02-26T02:41:29.577Z,17.60
2023-02-26T02:44:01.248Z,17.50
2023-02-26T02:46:33.983Z,17.50
2023-02-26T02:49:06.355Z,17.60
2023-02-26T02:51:38.736Z,17.70
2023-02-26T02:54:13.073Z,17.70
2023-02-26T02:56:46.774Z,17.70
2023-02-26T02:59:22.040Z,17.80
2023-02-26T03:01:59.887Z,17.80
2023-02-26T03:04:31.324Z,17.80
2023-02-26T03:06:59.842Z,17.80
2023-02-26T03:09:28.282Z,17.70
2023-02-26T03:11:56.852Z,17.70
2023-02-26T03:14:25.843Z,17.70
2023-02-26T03:17:10.470Z,17.60
2023-02-26T03:19:54.360Z,17.70
2023-02-26T03:22:30.018Z,17.80
2023-02-26T03:25:08.973Z,17.70
2023-02-26T03:27:44.875Z,17.70
2023-02-26T03:30:22.614Z,17.70
2023-02-26T03:33:00.158Z,17.70
2023-02-26T03:35:34.831Z,17.70
2023-02-26T03:38:08.617Z,17.70
2023-02-26T03:40:40.434Z,17.80
2023-02-26T03:43:16.959Z,17.80
2023-02-26T03:45:49.898Z,17.80
2023-02-26T03:48:25.330Z,17.70
2023-02-26T03:51:00.769Z,17.70
2023-02-26T03:53:52.859Z,17.70
2023-02-26T03:56:30.032Z,17.80
2023-02-26T03:59:01.380Z,17.80
2023-02-26T04:01:59.572Z,17.90
2023-02-26T04:04:34.581Z,17.90
2023-02-26T04:07:03.686Z,17.90
2023-02-26T04:09:32.106Z,17.90
2023-02-26T04:12:01.436Z,17.90
2023-02-26T04:14:29.836Z,17.90
2023-02-26T04:16:58.124Z,17.80
2023-02-26T04:19:26.647Z,17.90
2023-02-26T04:21:56.350Z,17.90
2023-02-26T04:24:25.062Z,17.90
2023-02-26T04:26:53.665Z,17.90
2023-02-26T04:29:22.004Z,18.00
2023-02-26T04:31:51.151Z,17.90
2023-02-26T04:34:19.609Z,17.90
2023-02-26T04:36:48.306Z,17.90
2023-02-26T04:39:18.196Z,17.90
2023-02-26T04:41:46.622Z,18.00
2023-02-26T04:44:14.966Z,18.00
2023-02-26T04:46:43.850Z,17.90
2023-02-26T04:49:12.253Z,17.90
2023-02-26T04:51:44.995Z,17.90
2023-02-26T04:54:17.789Z,17.80
2023-02-26T04:56:46.159Z,17.80
2023-02-26T04:59:14.462Z,17.90
2023-02-26T05:01:44.735Z,17.90
2023-02-26T05:04:13.209Z,17.80
2023-02-26T05:06:44.527Z,17.80
2023-02-26T05:09:13.094Z,17.80
2023-02-26T05:11:45.758Z,17.80
2023-02-26T05:14:16.423Z,17.80
2023-02-26T05:16:46.273Z,17.80
2023-02-26T05:19:14.832Z,17.90
2023-02-26T05:21:43.294Z,17.90
2023-02-26T05:24:11.786Z,17.90
2023-02-26T05:26:40.049Z,17.90
2023-02-26T05:29:10.042Z,18.00
2023-02-26T05:31:39.098Z,18.00
2023-02-26T05:34:07.413Z,18.00
2023-02-26T05:36:35.771Z,18.00
2023-02-26T05:39:04.729Z,18.00
2023-02-26T05:41:33.840Z,18.00
2023-02-26T05:44:02.666Z,18.00
2023-02-26T05:46:32.835Z,18.00
2023-02-26T05:49:01.967Z,18.10
2023-02-26T05:51:33.780Z,18.10
2023-02-26T05:54:02.233Z,18.10
2023-02-26T05:56:30.586Z,18.10
2023-02-26T05:58:58.916Z,18.20
2023-02-26T06:01:27.272Z,18.10
2023-02-26T06:03:56.955Z,18.10
2023-02-26T06:06:27.297Z,18.10
2023-02-26T06:08:55.829Z,18.00
2023-02-26T06:11:24.169Z,18.10
2023-02-26T06:13:52.550Z,18.20
2023-02-26T06:16:21.008Z,18.20
2023-02-26T06:18:49.810Z,18.30
2023-02-26T06:21:19.810Z,18.30
2023-02-26T06:23:48.217Z,18.40
2023-02-26T06:26:16.825Z,18.40
2023-02-26T06:28:45.289Z,18.40
2023-02-26T06:31:13.869Z,18.40
2023-02-26T06:33:42.212Z,18.40
2023-02-26T06:36:10.751Z,18.50
2023-02-26T06:38:40.815Z,18.50
2023-02-26T06:41:09.148Z,18.50
2023-02-26T06:43:37.535Z,18.50
2023-02-26T06:46:08.612Z,18.50
2023-02-26T06:48:39.817Z,18.50
2023-02-26T06:51:09.192Z,18.60
2023-02-26T06:53:41.903Z,18.80
2023-02-26T06:56:10.276Z,18.80
2023-02-26T06:58:38.552Z,18.80
2023-02-26T07:01:07.149Z,18.80
2023-02-26T07:03:35.466Z,18.80
2023-02-26T07:06:25.669Z,18.90
2023-02-26T07:08:54.396Z,18.90
2023-02-26T07:11:22.892Z,18.90
2023-02-26T07:13:52.143Z,18.90
2023-02-26T07:16:20.697Z,19.00
2023-02-26T07:18:49.095Z,19.00
2023-02-26T07:21:17.982Z,19.10
2023-02-26T07:23:46.424Z,19.10
2023-02-26T07:26:17.670Z,19.10
2023-02-26T07:28:46.107Z,19.10
2023-02-26T07:31:16.842Z,19.20
2023-02-26T07:33:47.034Z,19.20
2023-02-26T07:36:15.404Z,19.20
2023-02-26T07:38:43.987Z,19.20
2023-02-26T07:41:12.328Z,19.20
2023-02-26T07:43:42.676Z,19.20
2023-02-26T07:46:11.270Z,19.20
2023-02-26T07:48:39.988Z,19.20
2023-02-26T07:51:08.543Z,19.20
2023-02-26T07:53:36.882Z,19.20
2023-02-26T07:56:06.131Z,19.30
2023-02-26T07:58:34.804Z,19.30
2023-02-26T08:01:04.819Z,19.30
2023-02-26T08:03:33.412Z,19.40
2023-02-26T08:06:01.823Z,19.60
2023-02-26T08:08:30.290Z,19.70
2023-02-26T08:11:00.746Z,19.90
2023-02-26T08:13:29.972Z,20.00
2023-02-26T08:15:58.388Z,20.10
2023-02-26T08:18:28.151Z,20.20
2023-02-26T08:20:56.887Z,20.30
2023-02-26T08:23:26.842Z,20.30
2023-02-26T08:26:02.671Z,20.30
2023-02-26T08:28:31.088Z,20.30
2023-02-26T08:30:59.605Z,20.20
2023-02-26T08:33:30.601Z,20.10
2023-02-26T08:35:59.202Z,20.00
2023-02-26T08:38:27.813Z,19.90
2023-02-26T08:40:56.805Z,19.90
2023-02-26T08:43:25.316Z,19.80
2023-02-26T08:45:54.819Z,19.70
2023-02-26T08:48:23.218Z,19.80
2023-02-26T08:50:53.003Z,19.80
2023-02-26T08:53:21.386Z,19.90
2023-02-26T08:55:50.281Z,19.90
2023-02-26T08:58:19.241Z,19.90
2023-02-26T09:00:48.136Z,20.00
2023-02-26T09:03:16.953Z,20.00
2023-02-26T09:05:45.283Z,20.00
2023-02-26T09:08:16.147Z,20.10
2023-02-26T09:10:44.795Z,20.10
2023-02-26T09:13:13.257Z,20.10
2023-02-26T09:15:41.662Z,20.10
2023-02-26T09:18:15.688Z,20.10
2023-02-26T09:20:45.000Z,20.10
2023-02-26T09:23:14.748Z,20.00
2023-02-26T09:25:44.091Z,20.00
2023-02-26T09:28:12.464Z,19.90
2023-02-26T09:30:40.986Z,19.90
2023-02-26T09:33:09.711Z,19.80
2023-02-26T09:35:38.269Z,19.80
2023-02-26T09:38:06.689Z,19.70
2023-02-26T09:40:46.049Z,19.70
2023-02-26T09:43:32.416Z,19.70
2023-02-26T09:46:05.990Z,19.60
2023-02-26T09:48:38.556Z,19.60
2023-02-26T09:51:19.300Z,19.60
2023-02-26T09:53:50.586Z,19.60
2023-02-26T09:56:23.495Z,19.60
2023-02-26T09:58:53.303Z,19.60
2023-02-26T10:01:30.772Z,19.60
2023-02-26T10:04:09.588Z,19.60
2023-02-26T10:06:50.114Z,19.70
2023-02-26T10:09:31.055Z,19.70
2023-02-26T10:12:06.527Z,19.60
2023-02-26T10:14:39.641Z,19.60
2023-02-26T10:17:15.848Z,19.60
2023-02-26T10:19:48.880Z,19.70
2023-02-26T10:22:25.602Z,19.70
2023-02-26T10:24:59.593Z,19.70
2023-02-26T10:27:46.274Z,19.70
2023-02-26T10:30:23.489Z,19.80
2023-02-26T10:33:01.042Z,19.70
2023-02-26T10:35:33.155Z,19.80
2023-02-26T10:38:06.206Z,19.70
2023-02-26T10:40:38.610Z,19.70
2023-02-26T10:43:16.077Z,19.70
2023-02-26T10:45:58.334Z,19.80
2023-02-26T10:48:40.362Z,19.80
2023-02-26T10:51:14.941Z,19.70
2023-02-26T10:53:47.746Z,19.60
2023-02-26T10:56:19.366Z,19.70
2023-02-26T10:58:49.193Z,19.70
2023-02-26T11:01:20.579Z,19.70
2023-02-26T11:03:51.830Z,19.80
2023-02-26T11:06:25.229Z,19.80
2023-02-26T11:08:56.028Z,19.80
2023-02-26T11:11:38.793Z,19.90
2023-02-26T11:14:09.623Z,19.90
2023-02-26T11:16:44.249Z,19.80
2023-02-26T11:19:14.954Z,19.90
2023-02-26T11:21:47.495Z,19.80
2023-02-26T11:24:21.093Z,19.90
2023-02-26T11:26:51.964Z,19.90
2023-02-26T11:29:23.584Z,19.90
2023-02-26T11:31:52.827Z,19.90
2023-02-26T11:34:25.889Z,19.90
2023-02-26T11:36:58.218Z,20.00
2023-02-26T11:39:28.229Z,20.00
2023-02-26T11:41:59.672Z,19.90
2023-02-26T11:44:38.736Z,19.90
2023-02-26T11:47:09.251Z,19.90
2023-02-26T11:49:44.257Z,20.00
2023-02-26T11:52:23.543Z,19.90
2023-02-26T11:54:56.385Z,19.80
2023-02-26T11:57:27.411Z,19.90
2023-02-26T11:59:59.572Z,19.90
2023-02-26T12:02:35.074Z,19.80
2023-02-26T12:05:07.445Z,19.80
2023-02-26T12:07:36.083Z,19.80
2023-02-26T12:10:04.419Z,19.80
2023-02-26T12:12:43.815Z,19.70
2023-02-26T12:15:24.664Z,19.70
2023-02-26T12:18:23.810Z,19.70
2023-02-26T12:21:04.427Z,19.80
2023-02-26T12:24:09.364Z,19.80
2023-02-26T12:26:46.486Z,19.90
2023-02-26T12:29:38.507Z,19.90
2023-02-26T12:32:24.282Z,19.90
2023-02-26T12:35:17.991Z,19.90
2023-02-26T12:37:57.819Z,19.80
2023-02-26T12:41:05.023Z,19.80
2023-02-26T12:43:41.480Z,19.60
2023-02-26T12:46:30.515Z,19.50
2023-02-26T12:49:19.682Z,19.60
2023-02-26T12:52:01.264Z,19.90
2023-02-26T12:54:46.509Z,20.20
2023-02-26T12:57:33.459Z,20.30
2023-02-26T13:00:37.836Z,20.40
2023-02-26T13:03:23.753Z,20.20
2023-02-26T13:06:18.324Z,20.20
2023-02-26T13:08:55.474Z,20.20
2023-02-26T13:11:45.806Z,20.60
2023-02-26T13:14:26.891Z,21.20
2023-02-26T13:17:03.255Z,21.60
2023-02-26T13:19:43.464Z,21.90
2023-02-26T13:22:20.137Z,22.20
2023-02-26T13:24:55.409Z,22.60
2023-02-26T13:27:29.587Z,22.50
2023-02-26T13:30:19.893Z,22.70
2023-02-26T13:32:51.535Z,22.80
2023-02-26T13:35:23.435Z,22.90
2023-02-26T13:37:55.724Z,22.90
2023-02-26T13:40:40.068Z,23.00
2023-02-26T13:43:17.660Z,22.90
2023-02-26T13:45:54.734Z,22.60
2023-02-26T13:48:36.310Z,22.50
2023-02-26T13:51:08.985Z,22.10
2023-02-26T13:53:54.988Z,21.60
2023-02-26T13:56:44.824Z,21.20
2023-02-26T13:59:32.766Z,20.90
2023-02-26T14:02:04.660Z,20.70
2023-02-26T14:04:50.475Z,20.60
2023-02-26T14:07:39.012Z,20.60
2023-02-26T14:10:18.108Z,20.50
2023-02-26T14:12:46.603Z,20.60
2023-02-26T14:15:41.803Z,20.60
2023-02-26T14:18:26.285Z,20.50
2023-02-26T14:21:14.656Z,20.50
2023-02-26T14:23:47.897Z,20.50
2023-02-26T14:26:20.621Z,20.50
2023-02-26T14:28:58.823Z,20.60
2023-02-26T14:31:28.418Z,20.60
2023-02-26T14:34:15.358Z,20.70
2023-02-26T14:36:48.113Z,20.60
2023-02-26T14:39:31.316Z,20.70
2023-02-26T14:42:05.963Z,20.80
2023-02-26T14:44:41.062Z,20.80
2023-02-26T14:47:10.749Z,20.80
2023-02-26T14:49:41.512Z,20.70
2023-02-26T14:52:47.132Z,20.60
2023-02-26T14:55:36.709Z,20.50
2023-02-26T14:58:16.514Z,20.40
2023-02-26T15:00:53.486Z,20.30
2023-02-26T15:03:58.408Z,20.30
2023-02-26T15:06:56.443Z,20.30
2023-02-26T15:09:34.552Z,20.30
2023-02-26T15:12:20.804Z,20.30
2023-02-26T15:15:03.940Z,20.20
2023-02-26T15:17:48.406Z,20.20
2023-02-26T15:20:27.032Z,20.20
2023-02-26T15:23:11.249Z,20.20
2023-02-26T15:25:43.177Z,20.20
2023-02-26T15:28:19.645Z,20.20
2023-02-26T15:30:51.078Z,20.20
2023-02-26T15:33:21.470Z,20.10
2023-02-26T15:35:51.957Z,20.10
2023-02-26T15:38:20.579Z,20.00
2023-02-26T15:40:51.948Z,20.00
2023-02-26T15:43:24.480Z,20.00
2023-02-26T15:45:57.413Z,19.90
2023-02-26T15:48:30.512Z,19.90
2023-02-26T15:51:01.442Z,19.80
2023-02-26T15:53:33.915Z,19.80
2023-02-26T15:56:05.316Z,19.70
2023-02-26T15:58:40.871Z,19.70
2023-02-26T16:01:17.136Z,19.60
2023-02-26T16:03:45.812Z,19.50
2023-02-26T16:06:17.188Z,19.50
2023-02-26T16:08:45.719Z,19.50
2023-02-26T16:11:15.173Z,19.40
2023-02-26T16:13:45.092Z,19.50
2023-02-26T16:16:20.466Z,19.40
2023-02-26T16:18:49.341Z,19.40
2023-02-26T16:21:28.628Z,19.40
2023-02-26T16:23:58.453Z,19.30
2023-02-26T16:26:29.946Z,19.30
2023-02-26T16:29:03.204Z,19.30
2023-02-26T16:31:37.082Z,19.30
2023-02-26T16:34:09.829Z,19.30
2023-02-26T16:36:41.270Z,19.30
2023-02-26T16:39:19.632Z,19.20
2023-02-26T16:42:01.845Z,19.10
2023-02-26T16:44:52.650Z,19.20
2023-02-26T16:47:31.384Z,19.20
2023-02-26T16:49:59.856Z,19.20
2023-02-26T16:52:28.490Z,19.20
2023-02-26T16:55:02.561Z,19.20
2023-02-26T16:57:37.385Z,19.30
2023-02-26T17:00:10.962Z,19.20
2023-02-26T17:02:43.296Z,19.10
2023-02-26T17:05:26.013Z,19.20
2023-02-26T17:07:58.473Z,19.10
2023-02-26T17:10:35.887Z,19.10
2023-02-26T17:13:13.921Z,19.10
2023-02-26T17:15:43.090Z,19.10
2023-02-26T17:18:12.909Z,19.10
2023-02-26T17:20:41.896Z,19.00
2023-02-26T17:23:10.712Z,19.00
2023-02-26T17:25:42.009Z,19.00
2023-02-26T17:28:13.806Z,19.00
2023-02-26T17:30:42.306Z,19.00
2023-02-26T17:33:14.769Z,19.00
2023-02-26T17:35:44.368Z,19.00
2023-02-26T17:38:13.498Z,18.90
2023-02-26T17:40:43.356Z,19.00
2023-02-26T17:43:11.816Z,19.00
2023-02-26T17:45:41.702Z,18.90
2023-02-26T17:48:14.446Z,19.00
2023-02-26T17:50:47.129Z,19.00
2023-02-26T17:53:15.853Z,19.00
2023-02-26T17:55:45.086Z,19.00
2023-02-26T17:58:17.984Z,19.00
2023-02-26T18:00:49.925Z,19.10
2023-02-26T18:03:20.353Z,18.40
2023-02-26T18:05:49.693Z,17.10
2023-02-26T18:08:22.284Z,15.90
2023-02-26T18:10:51.177Z,14.50
2023-02-26T18:13:19.697Z,13.60
2023-02-26T18:15:48.835Z,13.00
2023-02-26T18:18:19.850Z,12.70
2023-02-26T18:20:48.657Z,12.60
2023-02-26T18:23:17.319Z,12.50
2023-02-26T18:25:48.318Z,12.40
2023-02-26T18:28:20.740Z,12.30
2023-02-26T18:30:49.729Z,12.20
2023-02-26T18:33:20.188Z,12.10
2023-02-26T18:35:53.202Z,12.20
2023-02-26T18:38:24.513Z,12.30
2023-02-26T18:40:53.891Z,12.10
2023-02-26T18:43:22.395Z,12.10
2023-02-26T18:45:52.421Z,12.20
2023-02-26T18:48:22.933Z,12.10
2023-02-26T18:50:51.321Z,12.10
2023-02-26T18:53:23.296Z,12.20
2023-02-26T18:55:53.609Z,12.10
2023-02-26T18:58:22.444Z,12.30
2023-02-26T19:00:51.122Z,12.20
2023-02-26T19:03:19.514Z,12.20
2023-02-26T19:05:57.371Z,12.20
2023-02-26T19:08:25.840Z,12.30
2023-02-26T19:10:54.261Z,12.30
2023-02-26T19:13:23.977Z,12.40
2023-02-26T19:15:52.646Z,12.30
2023-02-26T19:18:21.117Z,12.40
2023-02-26T19:20:50.939Z,12.50
2023-02-26T19:23:19.709Z,12.50
2023-02-26T19:25:48.175Z,12.50
2023-02-26T19:28:16.534Z,12.40
2023-02-26T19:30:44.953Z,12.50
2023-02-26T19:33:13.367Z,12.50
2023-02-26T19:35:41.955Z,12.40
2023-02-26T19:38:12.077Z,12.30
2023-02-26T19:40:40.845Z,12.30
2023-02-26T19:43:09.437Z,12.30
2023-02-26T19:45:38.939Z,12.20
2023-02-26T19:48:08.136Z,12.20
2023-02-26T19:50:38.104Z,12.10
2023-02-26T19:53:07.605Z,12.10
2023-02-26T19:55:38.487Z,12.20
2023-02-26T19:58:07.884Z,12.30
2023-02-26T20:00:37.926Z,12.20
2023-02-26T20:03:07.439Z,12.20
2023-02-26T20:05:38.273Z,12.40
2023-02-26T20:08:08.405Z,12.40
2023-02-26T20:10:40.064Z,12.50
2023-02-26T20:13:10.367Z,12.50
2023-02-26T20:15:40.886Z,12.50
2023-02-26T20:18:10.490Z,12.50
2023-02-26T20:20:40.474Z,12.30
2023-02-26T20:23:11.759Z,12.30
2023-02-26T20:25:49.296Z,12.20
2023-02-26T20:28:21.159Z,12.30
2023-02-26T20:30:52.454Z,12.30
2023-02-26T20:33:24.402Z,12.30
2023-02-26T20:35:56.894Z,12.20
2023-02-26T20:38:28.955Z,12.20
2023-02-26T20:41:01.749Z,12.30
2023-02-26T20:43:33.032Z,12.20
2023-02-26T20:46:03.905Z,12.10
2023-02-26T20:48:38.108Z,12.10
2023-02-26T20:51:10.753Z,12.10
2023-02-26T20:53:42.302Z,12.10
2023-02-26T20:56:15.539Z,12.20
2023-02-26T20:58:46.806Z,12.20
2023-02-26T21:01:17.726Z,12.10
2023-02-26T21:03:49.176Z,12.10
2023-02-26T21:06:20.589Z,12.20
2023-02-26T21:08:52.027Z,12.20
2023-02-26T21:11:26.672Z,12.00
2023-02-26T21:13:58.418Z,11.90
2023-02-26T21:16:30.912Z,11.80
2023-02-26T21:19:02.950Z,11.70
2023-02-26T21:21:35.133Z,11.70
2023-02-26T21:24:07.520Z,11.70
2023-02-26T21:26:41.447Z,11.70
2023-02-26T21:29:13.352Z,11.70
2023-02-26T21:31:44.074Z,11.70
2023-02-26T21:34:32.649Z,11.80
2023-02-26T21:37:06.643Z,11.80
2023-02-26T21:39:39.368Z,11.80
2023-02-26T21:42:13.911Z,11.80
2023-02-26T21:44:44.465Z,11.90
2023-02-26T21:47:14.332Z,11.90
2023-02-26T21:49:43.738Z,11.80
2023-02-26T21:52:14.106Z,11.80
2023-02-26T21:54:44.189Z,11.70
2023-02-26T21:57:14.985Z,11.70
2023-02-26T21:59:44.507Z,11.70
2023-02-26T22:02:14.003Z,11.70
2023-02-26T22:04:43.256Z,11.70
2023-02-26T22:07:11.796Z,11.70
2023-02-26T22:09:40.619Z,11.70
2023-02-26T22:12:09.340Z,11.70
2023-02-26T22:14:39.010Z,11.70
2023-02-26T22:17:07.356Z,11.70
2023-02-26T22:19:35.855Z,11.70
2023-02-26T22:22:04.122Z,11.80
2023-02-26T22:24:32.525Z,11.80
2023-02-26T22:27:03.342Z,11.90
2023-02-26T22:29:32.132Z,11.90
2023-02-26T22:32:01.903Z,12.00
2023-02-26T22:34:33.263Z,12.00
2023-02-26T22:37:01.653Z,11.90
2023-02-26T22:39:29.930Z,11.70
2023-02-26T22:42:01.030Z,11.70
2023-02-26T22:44:29.452Z,11.70
2023-02-26T22:46:57.843Z,11.60
2023-02-26T22:49:28.647Z,11.50
2023-02-26T22:51:56.948Z,11.40
2023-02-26T22:54:25.306Z,11.40
2023-02-26T22:56:54.432Z,11.40
2023-02-26T22:59:25.638Z,11.40
2023-02-26T23:01:54.154Z,11.40
2023-02-26T23:04:22.564Z,11.50
2023-02-26T23:06:52.420Z,11.50
2023-02-26T23:09:21.112Z,11.60
2023-02-26T23:11:49.442Z,11.70
2023-02-26T23:14:18.211Z,11.80
2023-02-26T23:16:46.548Z,11.80
2023-02-26T23:19:14.930Z,11.70
2023-02-26T23:21:43.212Z,11.70
2023-02-26T23:24:12.907Z,11.70
2023-02-26T23:26:41.335Z,11.70
2023-02-26T23:29:09.801Z,11.70
2023-02-26T23:31:38.297Z,11.70
2023-02-26T23:34:07.432Z,11.70
2023-02-26T23:36:36.616Z,11.70
2023-02-26T23:39:05.190Z,11.70
2023-02-26T23:41:36.176Z,11.70
2023-02-26T23:44:04.517Z,11.70
2023-02-26T23:46:33.036Z,11.70
2023-02-26T23:49:01.318Z,11.70
2023-02-26T23:51:29.676Z,11.80
2023-02-26T23:53:57.955Z,11.80
2023-02-26T23:56:26.434Z,11.80
2023-02-26T23:58:56.642Z,11.70
